Time;durP1;ratioP1;P1;durP2;ratioP2;P2;SDS_P1;SDS_P2;PMS_P1;PMS_P2;Temp;Humidity;BMP_temperature;BMP_pressure;BME280_temperature;BME280_humidity;BME280_pressure;Samples;Min_cycle;Max_cycle;Signal;HPM_P1;HPM_P2
2022/08/06 00:02:34;;;;;;;3.00;2.70;;;;;;;25.27;67.05;97820.19;5050002;28;20206;-23
2022/08/06 00:05:01;;;;;;;3.07;2.77;;;;;;;25.26;67.34;97821.91;5049382;28;20228;-22
2022/08/06 00:07:30;;;;;;;2.53;2.33;;;;;;;25.27;67.26;97818.50;5049883;28;20201;-23
2022/08/06 00:10:14;;;;;;;2.83;2.63;;;;;;;25.27;66.95;97818.50;5042792;28;20201;-22
2022/08/06 00:12:40;;;;;;;3.00;2.70;;;;;;;25.27;66.93;97818.50;5050208;28;20259;-21
2022/08/06 00:15:07;;;;;;;2.83;2.63;;;;;;;25.19;67.13;97808.91;5049908;28;20307;-23
2022/08/06 00:17:39;;;;;;;3.00;2.80;;;;;;;25.27;67.39;97826.22;5049118;28;20197;-23
2022/08/06 00:20:06;;;;;;;2.80;2.60;;;;;;;25.17;66.98;97809.72;5048893;28;20273;-22
2022/08/06 00:22:36;;;;;;;3.17;2.87;;;;;;;25.26;67.22;97824.50;5048261;28;20201;-22
2022/08/06 00:25:03;;;;;;;2.77;2.57;;;;;;;25.25;67.31;97812.44;5047833;28;20285;-21
2022/08/06 00:27:30;;;;;;;3.37;2.57;;;;;;;25.26;67.41;97813.31;5049762;28;20259;-22
2022/08/06 00:30:08;;;;;;;4.17;2.60;;;;;;;25.28;66.96;97814.22;5049602;28;20289;-23
2022/08/06 00:32:47;;;;;;;3.37;2.90;;;;;;;25.28;67.22;97824.53;5049472;28;20262;-22
2022/08/06 00:35:21;;;;;;;2.80;2.60;;;;;;;25.28;67.27;97827.09;5048462;28;20706;-22
2022/08/06 00:37:54;;;;;;;3.23;2.80;;;;;;;25.28;67.19;97842.53;5046344;28;20201;-23
2022/08/06 00:40:27;;;;;;;3.03;2.70;;;;;;;25.27;67.40;97839.09;5048921;28;20228;-22
2022/08/06 00:43:02;;;;;;;2.90;2.70;;;;;;;25.10;67.29;97820.75;5049156;28;20208;-23
2022/08/06 00:45:34;;;;;;;3.13;2.83;;;;;;;25.27;67.41;97839.09;5049098;28;20319;-22
2022/08/06 00:48:12;;;;;;;2.83;2.63;;;;;;;25.26;67.32;97834.78;5041814;28;20205;-22
2022/08/06 00:50:58;;;;;;;2.87;2.67;;;;;;;25.28;67.30;97852.81;5048345;28;20251;-22
2022/08/06 00:53:27;;;;;;;3.20;2.90;;;;;;;25.16;67.20;97830.28;5048381;28;20255;-22
2022/08/06 00:56:01;;;;;;;2.80;2.60;;;;;;;25.26;67.30;97855.38;5048109;28;20228;-23
2022/08/06 00:58:36;;;;;;;2.97;2.70;;;;;;;25.28;67.33;97863.13;5048310;28;20201;-22
2022/08/06 01:01:08;;;;;;;3.00;2.80;;;;;;;25.26;67.24;97859.63;5046627;28;20205;-23
2022/08/06 01:03:46;;;;;;;2.90;2.70;;;;;;;25.26;67.08;97851.91;5048003;28;20211;-22
2022/08/06 01:06:19;;;;;;;5.40;2.73;;;;;;;25.28;67.17;97845.94;5047930;28;20220;-22
2022/08/06 01:09:05;;;;;;;3.13;2.83;;;;;;;25.28;67.30;97840.81;5048424;28;20211;-22
2022/08/06 01:11:33;;;;;;;3.20;2.80;;;;;;;25.27;67.41;97839.09;5048449;28;20205;-22
2022/08/06 01:14:01;;;;;;;3.53;2.63;;;;;;;25.27;67.20;97843.34;5048025;28;20200;-22
2022/08/06 01:16:42;;;;;;;2.97;2.67;;;;;;;25.12;67.25;97831.06;5048113;28;20196;-22
2022/08/06 01:19:41;;;;;;;2.83;2.63;;;;;;;25.28;67.23;97860.53;5047491;28;20204;-22
2022/08/06 01:22:36;;;;;;;2.80;2.60;;;;;;;25.28;67.59;97857.97;5047212;28;20209;-22
2022/08/06 01:25:03;;;;;;;3.27;2.77;;;;;;;25.28;67.31;97869.09;5048558;28;20303;-22
2022/08/06 01:27:46;;;;;;;2.73;2.53;;;;;;;25.28;67.11;97865.69;5048113;28;20233;-22
2022/08/06 01:30:17;;;;;;;2.80;2.60;;;;;;;25.07;67.41;97819.81;5044696;28;20296;-22
2022/08/06 01:33:08;;;;;;;3.03;2.73;;;;;;;25.28;67.60;97852.81;5046754;28;20204;-22
2022/08/06 01:35:42;;;;;;;3.00;2.80;;;;;;;25.14;67.59;97825.09;5046472;28;20224;-22
2022/08/06 01:38:26;;;;;;;2.90;2.70;;;;;;;25.28;67.43;97850.25;5046742;28;20743;-22
2022/08/06 01:40:53;;;;;;;2.80;2.60;;;;;;;25.27;67.09;97846.78;5045132;28;20209;-22
2022/08/06 01:43:20;;;;;;;3.13;2.87;;;;;;;25.27;67.20;97844.22;5046863;28;20291;-22
2022/08/06 01:46:06;;;;;;;2.73;2.53;;;;;;;25.27;67.47;97848.50;5038610;28;20231;-22
2022/08/06 01:48:33;;;;;;;2.97;2.73;;;;;;;25.28;67.52;97845.09;5030034;28;20201;-23
2022/08/06 01:51:01;;;;;;;2.97;2.77;;;;;;;25.27;67.31;97859.66;5046410;28;20205;-23
2022/08/06 01:53:30;;;;;;;2.73;2.50;;;;;;;25.28;67.23;97855.41;5046680;28;20296;-22
2022/08/06 01:56:16;;;;;;;3.20;2.90;;;;;;;25.28;67.42;97858.81;5031649;28;20703;-23
2022/08/06 01:59:04;;;;;;;3.43;2.93;;;;;;;25.28;67.23;97852.81;5046438;28;20197;-23
2022/08/06 02:01:35;;;;;;;3.00;2.80;;;;;;;25.28;67.00;97847.69;5046430;28;20205;-22
2022/08/06 02:04:21;;;;;;;3.30;3.00;;;;;;;25.27;67.62;97864.81;5046030;28;20586;-22
2022/08/06 02:06:50;;;;;;;2.47;2.27;;;;;;;25.28;67.54;97873.41;5046319;28;20646;-23
2022/08/06 02:09:19;;;;;;;3.07;2.77;;;;;;;25.27;67.55;97864.81;5045857;28;20221;-22
2022/08/06 02:12:04;;;;;;;3.20;2.90;;;;;;;25.04;67.32;97825.75;5030576;28;20683;-22
2022/08/06 02:14:35;;;;;;;2.70;2.50;;;;;;;25.21;67.76;97856.09;5045572;28;20638;-22
2022/08/06 02:17:02;;;;;;;3.00;2.80;;;;;;;25.28;67.53;97865.69;5062993;28;20236;-23
2022/08/06 02:19:43;;;;;;;3.03;2.80;;;;;;;25.28;67.68;97853.66;5030062;28;20233;-23
2022/08/06 02:22:28;;;;;;;2.93;2.73;;;;;;;25.27;67.44;97859.66;5045104;28;20209;-22
2022/08/06 02:24:58;;;;;;;3.17;2.87;;;;;;;25.28;67.37;97860.53;5030286;28;20299;-22
2022/08/06 02:27:28;;;;;;;3.00;2.80;;;;;;;25.27;67.72;97864.81;5045527;28;20687;-22
2022/08/06 02:30:14;;;;;;;2.97;2.70;;;;;;;25.28;67.79;97875.97;5032561;28;20205;-22
2022/08/06 02:32:43;;;;;;;3.17;2.97;;;;;;;25.28;67.51;97878.56;5044082;28;20204;-22
2022/08/06 02:35:11;;;;;;;2.93;2.73;;;;;;;25.28;67.56;97875.97;5046815;28;20274;-23
2022/08/06 02:37:46;;;;;;;3.00;2.70;;;;;;;25.28;67.76;97887.13;5046540;28;20193;-22
2022/08/06 02:40:37;;;;;;;2.73;2.53;;;;;;;25.28;67.47;97886.28;5043183;28;20196;-22
2022/08/06 02:43:12;;;;;;;3.20;2.90;;;;;;;25.29;67.85;97900.84;5043838;28;20671;-23
2022/08/06 02:45:47;;;;;;;3.37;3.07;;;;;;;25.29;67.69;97898.28;5045385;28;20224;-23
2022/08/06 02:48:24;;;;;;;3.00;2.80;;;;;;;25.28;67.42;97894.00;5043471;28;20197;-22
2022/08/06 02:50:58;;;;;;;3.00;2.80;;;;;;;25.28;67.66;97902.56;5047332;28;20549;-23
2022/08/06 02:53:46;;;;;;;3.10;2.80;;;;;;;25.26;67.51;97904.25;5029361;28;20292;-22
2022/08/06 02:56:30;;;;;;;2.73;2.53;;;;;;;25.26;67.71;97905.94;5060329;22;20247;-21
2022/08/06 02:58:58;;;;;;;3.30;3.00;;;;;;;25.17;67.64;97886.91;5029300;28;20299;-21
2022/08/06 03:01:31;;;;;;;3.33;3.10;;;;;;;25.26;67.51;97909.41;5045858;28;20197;-21
2022/08/06 03:04:09;;;;;;;3.00;2.80;;;;;;;25.28;67.71;97917.16;5038504;28;20205;-21
2022/08/06 03:06:36;;;;;;;3.00;2.70;;;;;;;25.27;67.88;97913.69;5025751;28;20259;-21
2022/08/06 03:09:04;;;;;;;2.87;2.67;;;;;;;25.28;67.80;97919.72;5029170;28;20315;-21
2022/08/06 03:11:32;;;;;;;3.13;2.83;;;;;;;25.28;67.93;97914.56;5047273;28;20211;-21
2022/08/06 03:14:03;;;;;;;3.27;3.07;;;;;;;25.27;67.83;97918.84;5046767;28;20208;-21
2022/08/06 03:16:49;;;;;;;3.13;2.87;;;;;;;25.28;67.70;97922.28;5047649;28;20211;-21
2022/08/06 03:19:17;;;;;;;2.70;2.50;;;;;;;25.28;68.00;97932.59;5029193;28;20276;-21
2022/08/06 03:22:05;;;;;;;2.93;2.70;;;;;;;25.28;67.90;97943.72;5032420;28;20205;-23
2022/08/06 03:24:37;;;;;;;3.10;2.80;;;;;;;25.28;67.99;97948.88;5030772;28;20547;-21
2022/08/06 03:27:05;;;;;;;3.10;2.90;;;;;;;25.27;67.92;97947.13;5051146;28;20260;-21
2022/08/06 03:29:32;;;;;;;3.10;2.90;;;;;;;25.02;67.83;97909.72;5029626;28;20201;-21
2022/08/06 03:31:59;;;;;;;2.80;2.60;;;;;;;25.19;67.80;97934.97;5049423;28;20651;-21
2022/08/06 03:34:46;;;;;;;3.17;2.33;;;;;;;25.10;68.08;97920.19;5033511;28;20727;-21
2022/08/06 03:37:12;;;;;;;3.13;2.93;;;;;;;25.26;67.90;97945.41;5029497;28;20240;-21
2022/08/06 03:39:42;;;;;;;3.10;2.80;;;;;;;25.27;68.13;97947.13;5031509;28;20232;-21
2022/08/06 03:42:12;;;;;;;3.43;3.13;;;;;;;25.26;67.94;97955.72;5042798;28;20201;-21
2022/08/06 03:44:39;;;;;;;3.43;3.13;;;;;;;25.01;68.39;97913.16;5050539;28;20296;-21
2022/08/06 03:47:05;;;;;;;3.10;2.80;;;;;;;25.26;68.34;97958.28;5047510;28;20263;-21
2022/08/06 03:49:36;;;;;;;3.03;2.73;;;;;;;25.03;67.91;97915.75;5050545;28;20376;-20
2022/08/06 03:52:07;;;;;;;3.30;2.80;;;;;;;25.26;68.27;97966.00;5043308;28;20287;-21
2022/08/06 03:54:42;;;;;;;2.93;2.63;;;;;;;25.27;68.07;97983.16;5031075;28;20225;-22
2022/08/06 03:57:12;;;;;;;2.90;2.67;;;;;;;25.26;68.42;97975.41;5032866;28;20200;-21
2022/08/06 03:59:42;;;;;;;2.93;2.73;;;;;;;25.25;68.38;97979.66;5048756;28;20679;-21
2022/08/06 04:02:37;;;;;;;2.80;2.60;;;;;;;25.26;68.41;97991.72;5035095;28;20200;-21
2022/08/06 04:05:24;;;;;;;3.00;2.80;;;;;;;25.24;67.87;97990.81;5050640;28;20231;-21
2022/08/06 04:07:55;;;;;;;3.07;2.67;;;;;;;25.01;68.24;97950.84;5048824;28;20232;-21
2022/08/06 04:10:40;;;;;;;2.80;2.60;;;;;;;25.26;68.35;97998.56;5048955;28;20215;-21
2022/08/06 04:13:23;;;;;;;2.67;2.47;;;;;;;25.24;68.14;98000.22;5049554;28;20197;-21
2022/08/06 04:16:13;;;;;;;2.83;2.63;;;;;;;25.24;67.99;98008.81;5027112;28;20225;-21
2022/08/06 04:18:55;;;;;;;2.80;2.60;;;;;;;25.25;68.06;98020.00;5048630;28;20209;-21
2022/08/06 04:21:24;;;;;;;3.07;2.80;;;;;;;25.15;68.32;98003.47;5027994;28;20266;-21
2022/08/06 04:24:12;;;;;;;3.10;2.80;;;;;;;25.25;67.91;98020.00;5046253;28;20211;-21
2022/08/06 04:26:38;;;;;;;2.87;2.67;;;;;;;25.16;68.55;98007.78;5048263;28;20738;-21
2022/08/06 04:29:07;;;;;;;2.70;2.50;;;;;;;25.16;68.09;98006.91;5031833;28;20207;-21
2022/08/06 04:31:35;;;;;;;3.27;2.97;;;;;;;25.17;68.39;98011.22;5028369;28;20202;-21
2022/08/06 04:34:25;;;;;;;2.73;2.53;;;;;;;25.23;67.96;98012.22;5035167;28;20979;-21
2022/08/06 04:36:55;;;;;;;3.10;2.80;;;;;;;25.23;68.08;98019.97;5050451;28;20209;-21
2022/08/06 04:39:21;;;;;;;2.67;2.43;;;;;;;25.24;68.13;98018.22;5046426;28;20332;-20
2022/08/06 04:42:03;;;;;;;2.80;2.60;;;;;;;25.23;68.21;98024.22;5049609;28;20197;-21
2022/08/06 04:44:31;;;;;;;2.70;2.50;;;;;;;25.23;68.17;98032.81;5047988;28;20204;-21
2022/08/06 04:46:58;;;;;;;2.63;2.43;;;;;;;25.23;68.22;98045.69;5049485;28;20259;-21
2022/08/06 04:49:25;;;;;;;2.80;2.60;;;;;;;25.24;68.05;98049.09;5030188;28;20197;-21
2022/08/06 04:52:22;;;;;;;2.90;2.70;;;;;;;25.23;68.08;98035.41;5042897;28;20197;-21
2022/08/06 04:55:02;;;;;;;3.30;2.63;;;;;;;25.23;68.04;98045.69;5043987;28;20544;-21
2022/08/06 04:57:29;;;;;;;2.90;2.70;;;;;;;25.23;68.46;98048.25;5049694;28;20255;-21
2022/08/06 05:00:16;;;;;;;2.60;2.40;;;;;;;25.21;68.42;98054.19;5049270;28;20204;-21
2022/08/06 05:02:59;;;;;;;2.60;2.40;;;;;;;25.23;68.29;98053.41;5049583;28;20205;-21
2022/08/06 05:05:26;;;;;;;2.67;2.47;;;;;;;25.15;68.15;98034.34;5048765;28;20252;-21
2022/08/06 05:07:53;;;;;;;4.03;3.00;;;;;;;25.14;67.36;98046.31;5030174;28;20604;-21
2022/08/06 05:10:44;;;;;;;5.77;3.40;;;;;;;25.23;66.37;98055.09;5032454;28;20201;-21
2022/08/06 05:13:13;;;;;;;3.73;3.00;;;;;;;25.14;65.81;98053.19;5047500;28;20229;-21
2022/08/06 05:16:02;;;;;;;3.60;3.23;;;;;;;25.12;65.60;98047.13;5040124;28;20230;-21
2022/08/06 05:18:44;;;;;;;3.33;3.03;;;;;;;25.21;65.42;98073.06;5031748;28;20258;-21
2022/08/06 05:21:31;;;;;;;3.20;3.00;;;;;;;25.21;65.14;98074.75;5032805;28;20679;-21
2022/08/06 05:24:18;;;;;;;4.50;3.40;;;;;;;24.95;64.91;98015.88;5027678;28;20208;-21
2022/08/06 05:26:46;;;;;;;3.73;3.07;;;;;;;25.18;65.14;98067.84;5020015;28;20311;-21
2022/08/06 05:29:18;;;;;;;5.27;3.20;;;;;;;25.19;65.15;98073.88;5043801;28;20957;-21
2022/08/06 05:31:48;;;;;;;4.13;3.73;;;;;;;24.99;64.55;98039.97;5045358;28;20209;-21
2022/08/06 05:34:15;;;;;;;6.07;3.73;;;;;;;25.17;64.75;98068.69;5044147;28;20292;-21
2022/08/06 05:36:45;;;;;;;5.20;3.60;;;;;;;25.16;64.11;98066.94;5045347;28;20216;-21
2022/08/06 05:39:12;;;;;;;5.30;4.00;;;;;;;25.14;64.13;98069.47;5049047;28;20241;-21
2022/08/06 05:41:58;;;;;;;4.60;4.03;;;;;;;25.16;63.92;98078.94;5048181;28;20215;-21
2022/08/06 05:44:26;;;;;;;5.20;4.10;;;;;;;25.15;64.41;98080.63;5048808;28;20594;-21
2022/08/06 05:46:57;;;;;;;5.33;4.30;;;;;;;25.14;63.62;98086.63;5048358;28;20776;-21
2022/08/06 05:49:36;;;;;;;5.30;4.70;;;;;;;24.89;63.92;98040.56;5046762;28;20228;-21
2022/08/06 05:52:34;;;;;;;5.07;4.17;;;;;;;25.13;64.02;98087.44;5028646;28;20216;-21
2022/08/06 05:55:27;;;;;;;4.67;4.27;;;;;;;25.13;63.70;98102.88;5047560;28;20267;-22
2022/08/06 05:58:11;;;;;;;6.33;4.70;;;;;;;25.13;63.31;98102.03;5033270;28;20203;-20
2022/08/06 06:00:37;;;;;;;5.80;5.20;;;;;;;25.12;63.95;98096.00;5030492;28;20239;-21
2022/08/06 06:03:13;;;;;;;5.87;5.30;;;;;;;25.13;63.48;98107.16;5047549;28;20281;-21
2022/08/06 06:05:50;;;;;;;5.90;5.30;;;;;;;25.11;63.81;98113.13;5046925;28;20231;-20
2022/08/06 06:08:37;;;;;;;6.80;5.40;;;;;;;25.12;63.02;98111.44;5046712;28;20806;-21
2022/08/06 06:11:23;;;;;;;6.27;5.67;;;;;;;25.03;63.05;98096.66;5046648;28;20224;-21
2022/08/06 06:14:17;;;;;;;6.87;6.10;;;;;;;25.10;63.63;98116.53;5025658;28;20208;-21
2022/08/06 06:17:31;;;;;;;6.63;5.80;;;;;;;25.10;63.45;98111.41;5044895;28;20223;-21
2022/08/06 06:20:19;;;;;;;6.07;5.47;;;;;;;25.09;63.28;98111.34;5042149;28;20292;-21
2022/08/06 06:23:44;;;;;;;7.23;6.17;;;;;;;25.06;63.58;98091.59;5046575;28;20205;-21
2022/08/06 06:26:21;;;;;;;7.07;5.33;;;;;;;25.08;63.55;98102.75;4968618;28;20717;-21
2022/08/06 06:29:03;;;;;;;6.13;5.50;;;;;;;25.08;63.83;98102.75;4969428;28;20602;-21
2022/08/06 06:32:01;;;;;;;5.80;5.30;;;;;;;25.09;64.29;98111.34;5023854;28;20209;-21
2022/08/06 06:34:36;;;;;;;5.83;5.33;;;;;;;25.09;64.51;98126.78;5040439;28;20201;-21
2022/08/06 06:37:16;;;;;;;5.70;5.20;;;;;;;25.10;64.56;98120.81;5043427;28;20579;-21
2022/08/06 06:39:52;;;;;;;5.50;5.00;;;;;;;25.10;65.18;98118.22;5047927;28;20243;-21
2022/08/06 06:42:31;;;;;;;7.03;5.40;;;;;;;25.11;65.55;98122.56;5046825;28;20201;-21
2022/08/06 06:45:23;;;;;;;5.80;5.03;;;;;;;25.11;65.21;98126.00;5045835;28;20227;-21
2022/08/06 06:48:18;;;;;;;6.07;5.13;;;;;;;25.09;65.36;98121.66;5045680;28;20232;-21
2022/08/06 06:50:46;;;;;;;5.10;4.43;;;;;;;25.12;65.33;98121.72;5047300;28;20723;-21
2022/08/06 06:53:14;;;;;;;5.27;4.77;;;;;;;25.12;65.58;98126.88;5032096;28;20699;-21
2022/08/06 06:55:46;;;;;;;5.47;4.93;;;;;;;25.05;66.01;98112.13;5043770;28;20232;-21
2022/08/06 06:58:34;;;;;;;5.43;4.93;;;;;;;25.13;65.89;98138.03;5046300;28;20571;-21
2022/08/06 07:01:01;;;;;;;4.93;4.50;;;;;;;25.11;65.95;98132.84;5049195;28;20211;-21
2022/08/06 07:03:48;;;;;;;5.10;4.70;;;;;;;24.95;65.66;98105.00;5027606;28;20483;-21
2022/08/06 07:06:16;;;;;;;5.67;5.07;;;;;;;25.13;65.71;98133.75;5046413;28;20217;-21
2022/08/06 07:09:02;;;;;;;5.67;4.90;;;;;;;25.13;65.54;98133.75;5049556;28;20555;-20
2022/08/06 07:11:40;;;;;;;5.37;4.87;;;;;;;23.35;65.61;97830.19;5030353;28;20761;-21
2022/08/06 07:14:27;;;;;;;5.37;4.87;;;;;;;25.13;65.73;98132.06;5045983;28;20204;-21
2022/08/06 07:16:59;;;;;;;5.23;4.73;;;;;;;25.14;66.26;98132.94;5044642;28;20204;-21
2022/08/06 07:19:25;;;;;;;5.97;5.20;;;;;;;24.89;65.94;98098.00;5049303;28;20270;-21
2022/08/06 07:21:52;;;;;;;5.10;4.60;;;;;;;25.14;65.94;98144.06;5032525;28;20239;-21
2022/08/06 07:24:21;;;;;;;5.33;4.83;;;;;;;25.04;65.92;98120.66;5049831;28;20232;-21
2022/08/06 07:27:06;;;;;;;5.53;5.03;;;;;;;25.14;66.11;98149.22;5050260;28;20197;-21
2022/08/06 07:29:40;;;;;;;4.60;4.20;;;;;;;25.14;66.50;98151.78;5033481;28;20212;-21
2022/08/06 07:32:26;;;;;;;5.70;4.70;;;;;;;25.16;66.27;98158.69;5045017;28;20724;-21
2022/08/06 07:34:59;;;;;;;4.93;4.53;;;;;;;25.16;66.13;98161.28;5034370;28;20220;-21
2022/08/06 07:37:25;;;;;;;5.47;4.70;;;;;;;25.14;65.18;98158.66;5050809;28;20228;-21
2022/08/06 07:40:06;;;;;;;5.00;4.53;;;;;;;25.15;65.22;98157.81;5041894;28;20208;-21
2022/08/06 07:42:33;;;;;;;7.10;5.60;;;;;;;24.81;65.52;98114.09;5030048;28;20205;-21
2022/08/06 07:45:02;;;;;;;6.23;5.73;;;;;;;25.14;65.10;98167.22;5032849;28;20714;-21
2022/08/06 07:47:34;;;;;;;5.67;5.17;;;;;;;25.15;65.77;98178.41;5047813;28;20247;-21
2022/08/06 07:50:12;;;;;;;6.20;5.30;;;;;;;25.15;65.74;98173.25;5048692;28;20209;-21
2022/08/06 07:52:39;;;;;;;7.20;5.60;;;;;;;25.16;65.46;98164.69;5050837;28;20752;-21
2022/08/06 07:55:10;;;;;;;6.53;5.90;;;;;;;25.17;64.65;98165.56;5030944;28;20231;-21
2022/08/06 07:57:37;;;;;;;7.80;7.10;;;;;;;25.16;63.37;98169.84;5050421;28;20196;-21
2022/08/06 08:00:24;;;;;;;8.23;7.50;;;;;;;25.16;62.30;98174.13;5044029;28;20219;-21
2022/08/06 08:06:20;;;;;;;9.30;7.80;;;;;;;25.13;61.15;98175.78;5031348;28;20686;-21
2022/08/06 08:08:49;;;;;;;12.47;6.97;;;;;;;25.13;60.99;98180.94;5048805;28;20588;-21
2022/08/06 08:11:16;;;;;;;8.13;7.30;;;;;;;25.11;61.08;98185.16;5049717;28;20200;-21
2022/08/06 08:13:46;;;;;;;8.03;7.30;;;;;;;25.09;60.50;98186.84;5043681;28;20659;-21
2022/08/06 08:16:15;;;;;;;7.97;7.17;;;;;;;25.08;61.01;98187.66;5050278;28;20223;-20
2022/08/06 08:18:54;;;;;;;8.60;7.17;;;;;;;25.05;60.70;98179.84;5038019;28;20197;-21
2022/08/06 08:21:21;;;;;;;8.40;7.50;;;;;;;25.04;60.56;98183.25;5046495;28;20208;-21
2022/08/06 08:23:47;;;;;;;13.70;8.33;;;;;;;25.04;60.64;98182.38;5050100;28;20296;-21
2022/08/06 08:26:21;;;;;;;8.00;7.20;;;;;;;25.03;61.00;98181.53;5042482;28;20221;-21
2022/08/06 08:28:51;;;;;;;8.70;7.80;;;;;;;25.02;61.35;98184.06;5050051;28;20264;-21
2022/08/06 08:31:17;;;;;;;9.43;7.10;;;;;;;25.01;61.89;98193.47;5050255;28;20291;-21
2022/08/06 08:33:52;;;;;;;12.23;7.20;;;;;;;25.02;62.09;98195.19;5049995;28;20287;-21
2022/08/06 08:36:21;;;;;;;13.00;7.20;;;;;;;25.02;62.46;98202.91;5049041;28;20225;-21
2022/08/06 08:38:56;;;;;;;7.53;6.73;;;;;;;25.03;63.04;98212.41;5049775;28;20287;-21
2022/08/06 08:41:33;;;;;;;9.33;6.90;;;;;;;25.03;62.98;98204.69;5050166;28;20668;-21
2022/08/06 08:44:15;;;;;;;9.23;6.30;;;;;;;25.03;63.01;98203.81;5045191;28;20730;-21
2022/08/06 08:46:52;;;;;;;7.00;6.30;;;;;;;25.03;62.89;98204.69;5032718;28;20236;-21
2022/08/06 08:49:40;;;;;;;7.37;6.53;;;;;;;25.03;63.24;98189.25;5045108;28;20224;-21
2022/08/06 08:52:21;;;;;;;11.83;6.60;;;;;;;24.93;63.42;98181.25;5047903;28;20204;-21
2022/08/06 08:57:22;;;;;;;6.70;6.10;;;;;;;25.05;64.07;98205.56;5079346;28;20216;-31
2022/08/06 09:00:10;;;;;;;6.97;6.07;;;;;;;25.07;64.09;98203.03;5082269;28;20207;-31
2022/08/06 09:02:38;;;;;;;6.63;6.03;;;;;;;25.04;64.13;98201.28;5079243;28;20208;-31
2022/08/06 09:05:13;;;;;;;8.07;6.13;;;;;;;25.08;64.37;98200.50;5079743;28;20212;-31
2022/08/06 09:07:40;;;;;;;6.87;6.13;;;;;;;25.07;63.97;98200.47;5065181;28;20816;-31
2022/08/06 09:10:08;;;;;;;6.43;5.83;;;;;;;25.09;64.50;98203.97;5086987;28;20207;-31
2022/08/06 09:12:37;;;;;;;7.13;5.90;;;;;;;25.09;64.04;98209.09;5089532;28;20225;-31
2022/08/06 09:15:11;;;;;;;6.10;5.57;;;;;;;25.10;64.49;98214.28;5075594;28;20285;-31
2022/08/06 09:17:40;;;;;;;8.07;5.70;;;;;;;25.06;64.18;98206.44;5082656;28;20287;-31
2022/08/06 09:20:26;;;;;;;6.00;5.50;;;;;;;25.13;64.45;98220.34;5076934;28;20208;-31
2022/08/06 09:22:53;;;;;;;6.10;5.47;;;;;;;25.13;64.04;98229.81;5079521;28;20705;-31
2022/08/06 09:25:41;;;;;;;6.97;6.27;;;;;;;25.13;63.22;98219.50;5082653;28;20216;-31
2022/08/06 09:28:37;;;;;;;9.13;5.43;;;;;;;25.14;63.22;98218.66;5083113;28;20223;-31
2022/08/06 09:31:04;;;;;;;6.17;5.57;;;;;;;25.14;63.53;98225.53;5083558;28;20514;-31
2022/08/06 09:34:00;;;;;;;6.80;5.77;;;;;;;25.13;63.87;98225.50;5074874;28;20273;-31
2022/08/06 09:36:48;;;;;;;6.20;5.60;;;;;;;25.14;63.63;98220.41;5076152;28;20777;-31
2022/08/06 09:39:41;;;;;;;5.93;5.33;;;;;;;25.15;63.81;98227.28;5075869;28;20223;-31
2022/08/06 09:42:40;;;;;;;6.57;5.97;;;;;;;25.14;64.21;98222.97;5074167;28;20277;-31
2022/08/06 09:45:11;;;;;;;5.50;5.10;;;;;;;25.14;63.98;98220.41;5075895;28;20231;-31
2022/08/06 09:47:46;;;;;;;5.83;5.33;;;;;;;25.14;63.92;98228.97;5073848;28;20646;-31
2022/08/06 09:50:43;;;;;;;5.93;5.43;;;;;;;25.07;64.31;98216.78;5073786;28;20242;-31
2022/08/06 09:53:14;;;;;;;5.93;5.43;;;;;;;25.16;64.17;98231.56;5078025;28;20290;-31
2022/08/06 09:55:46;;;;;;;5.77;5.27;;;;;;;25.13;64.03;98223.78;5075207;28;20231;-31
2022/08/06 09:58:12;;;;;;;5.83;5.33;;;;;;;25.16;64.16;98234.16;5078686;28;20547;-30
2022/08/06 10:00:39;;;;;;;5.57;5.07;;;;;;;25.17;63.98;98234.19;5087889;28;20711;-30
2022/08/06 10:03:08;;;;;;;5.80;5.37;;;;;;;25.17;64.33;98231.63;5084574;28;20203;-31
2022/08/06 10:06:05;;;;;;;5.40;5.00;;;;;;;25.17;64.45;98223.03;5088537;28;20237;-31
2022/08/06 10:08:36;;;;;;;5.30;4.90;;;;;;;25.17;64.08;98227.31;5079828;28;20253;-31
2022/08/06 10:11:03;;;;;;;5.67;5.17;;;;;;;25.12;64.35;98211.75;5086579;28;20238;-31
2022/08/06 10:13:33;;;;;;;5.37;4.93;;;;;;;25.16;64.28;98226.44;5086778;28;20204;-31
2022/08/06 10:16:26;;;;;;;5.63;5.20;;;;;;;25.17;64.21;98219.59;5087790;28;20226;-31
2022/08/06 10:18:55;;;;;;;5.50;5.10;;;;;;;25.17;64.38;98223.03;5085731;28;20623;-31
2022/08/06 10:21:32;;;;;;;5.30;4.90;;;;;;;25.17;64.62;98223.03;5083811;28;20200;-31
2022/08/06 10:24:12;;;;;;;5.40;5.00;;;;;;;25.13;64.58;98216.94;5078032;28;20291;-31
2022/08/06 10:26:50;;;;;;;5.53;5.10;;;;;;;25.11;64.80;98216.03;5082421;28;20223;-31
2022/08/06 10:29:18;;;;;;;5.20;4.80;;;;;;;25.13;64.71;98207.50;5072986;28;20243;-31
2022/08/06 10:31:48;;;;;;;5.20;4.80;;;;;;;25.17;64.44;98211.88;5070616;28;20208;-31
2022/08/06 10:34:26;;;;;;;4.90;4.50;;;;;;;25.17;64.65;98222.16;5076217;28;20200;-31
2022/08/06 10:37:02;;;;;;;5.00;4.60;;;;;;;25.17;64.79;98219.59;5085261;28;20219;-31
2022/08/06 10:39:53;;;;;;;5.37;4.97;;;;;;;25.17;64.60;98209.31;5089123;28;20200;-31
2022/08/06 10:42:36;;;;;;;5.23;4.73;;;;;;;25.16;64.41;98220.44;5082691;28;20594;-31
2022/08/06 10:45:07;;;;;;;5.13;4.73;;;;;;;25.17;64.55;98217.91;5082370;28;20756;-31
2022/08/06 10:47:40;;;;;;;4.37;4.07;;;;;;;25.17;64.85;98210.19;5087883;28;20263;-31
2022/08/06 10:50:26;;;;;;;4.93;4.53;;;;;;;25.17;64.59;98215.34;5079658;28;20202;-31
2022/08/06 10:53:08;;;;;;;5.23;4.83;;;;;;;25.11;64.40;98205.72;5080243;28;20282;-31
2022/08/06 10:55:36;;;;;;;4.80;4.40;;;;;;;25.12;64.84;98201.47;5070339;28;20227;-31
2022/08/06 10:58:10;;;;;;;4.90;4.50;;;;;;;25.17;64.77;98212.75;5072968;28;20283;-31
2022/08/06 11:00:40;;;;;;;5.00;4.50;;;;;;;25.17;64.82;98213.59;5087974;28;20200;-31
2022/08/06 11:03:39;;;;;;;4.70;4.40;;;;;;;25.17;64.83;98211.88;5085736;28;20560;-31
2022/08/06 11:06:16;;;;;;;4.80;4.40;;;;;;;25.17;65.01;98210.19;5081949;28;20612;-31
2022/08/06 11:09:01;;;;;;;4.80;4.40;;;;;;;25.16;64.61;98205.84;5078613;28;20633;-31
2022/08/06 11:11:34;;;;;;;4.80;4.40;;;;;;;25.16;64.65;98210.16;5079607;28;20196;-31
2022/08/06 11:14:09;;;;;;;4.37;4.07;;;;;;;25.13;64.86;98206.66;5082721;28;20195;-31
2022/08/06 11:16:56;;;;;;;4.30;4.00;;;;;;;25.13;64.79;98195.47;5079781;28;20223;-31
2022/08/06 11:19:42;;;;;;;4.40;4.10;;;;;;;25.10;64.98;98193.72;5077468;28;20728;-31
2022/08/06 11:22:41;;;;;;;4.57;4.17;;;;;;;25.17;65.11;98204.16;5085923;28;20200;-31
2022/08/06 11:25:36;;;;;;;4.70;4.40;;;;;;;25.17;65.17;98200.75;5073198;28;20302;-31
2022/08/06 11:28:04;;;;;;;4.20;3.90;;;;;;;25.17;65.27;98207.59;5080136;28;20445;-31
2022/08/06 11:30:44;;;;;;;4.43;4.13;;;;;;;25.17;64.90;98199.91;5088633;28;20207;-31
2022/08/06 11:33:33;;;;;;;4.63;4.23;;;;;;;25.18;65.16;98206.78;5079341;28;20199;-31
2022/08/06 11:36:03;;;;;;;4.10;3.80;;;;;;;25.19;64.92;98202.50;5070692;28;20379;-31
2022/08/06 11:38:51;;;;;;;4.20;3.90;;;;;;;25.19;64.89;98192.22;5074877;28;20614;-30
2022/08/06 11:41:23;;;;;;;4.30;4.00;;;;;;;25.11;65.38;98186.88;5077284;28;20203;-31
2022/08/06 11:44:10;;;;;;;4.30;4.00;;;;;;;25.17;65.40;98199.00;5077769;28;20192;-31
2022/08/06 11:46:45;;;;;;;4.20;3.90;;;;;;;25.20;65.13;98199.09;5089447;28;20235;-31
2022/08/06 11:49:37;;;;;;;4.10;3.80;;;;;;;25.21;65.19;98198.25;5095954;28;20219;-31
2022/08/06 11:52:30;;;;;;;4.37;4.07;;;;;;;25.22;64.88;98192.28;5084688;28;20675;-31
2022/08/06 11:55:06;;;;;;;4.47;4.17;;;;;;;25.20;64.96;98184.53;5084903;28;20216;-31
2022/08/06 11:57:34;;;;;;;4.40;4.00;;;;;;;25.14;64.85;98180.09;5081206;28;20235;-31
2022/08/06 12:00:16;;;;;;;4.47;4.17;;;;;;;25.26;64.80;98194.09;5082703;28;20200;-31
2022/08/06 12:02:45;;;;;;;4.00;3.70;;;;;;;25.25;65.27;98192.38;5088906;28;20248;-31
2022/08/06 12:05:15;;;;;;;3.73;3.50;;;;;;;25.26;65.09;98192.41;5078596;28;20216;-31
2022/08/06 12:07:46;;;;;;;4.33;3.97;;;;;;;25.26;65.06;98194.97;5080202;28;20235;-31
2022/08/06 12:10:17;;;;;;;4.37;4.07;;;;;;;25.28;65.03;98192.44;5081830;28;20220;-31
2022/08/06 12:12:54;;;;;;;4.13;3.83;;;;;;;25.25;65.09;98184.66;5085488;28;20672;-31
2022/08/06 12:15:26;;;;;;;3.83;3.53;;;;;;;25.28;64.88;98188.16;5085488;28;20276;-31
2022/08/06 12:18:12;;;;;;;4.10;3.80;;;;;;;25.24;65.10;98173.47;5087417;28;20682;-31
2022/08/06 12:20:49;;;;;;;4.27;3.87;;;;;;;25.29;64.81;98179.63;5091250;28;20203;-31
2022/08/06 12:23:22;;;;;;;4.20;3.80;;;;;;;25.26;64.71;98176.09;5072275;28;20309;-31
2022/08/06 12:26:09;;;;;;;3.87;3.57;;;;;;;25.30;64.97;98183.91;5079471;28;20220;-31